Time;durP1;ratioP1;P1;durP2;ratioP2;P2;SDS_P1;SDS_P2;PMS_P1;PMS_P2;Temp;Humidity;BMP_temperature;BMP_pressure;BME280_temperature;BME280_humidity;BME280_pressure;Samples;Min_cycle;Max_cycle;Signal;HPM_P1;HPM_P2
2021/03/19 00:01:32;;;;;;;5.73;3.50;;;;;;;-3.35;100.00;101222.56;5007581;28;20046;-69
2021/03/19 00:03:59;;;;;;;6.70;3.57;;;;;;;-3.40;100.00;101214.59;5020557;28;20047;-68
2021/03/19 00:06:25;;;;;;;6.03;3.50;;;;;;;-3.45;100.00;101218.69;4985001;28;20074;-69
2021/03/19 00:08:52;;;;;;;6.80;3.70;;;;;;;-3.51;100.00;101226.16;5019367;28;20301;-68
2021/03/19 00:11:18;;;;;;;4.83;3.03;;;;;;;-3.55;100.00;101224.25;5023726;28;20034;-68
2021/03/19 00:13:45;;;;;;;7.23;4.43;;;;;;;-3.61;100.00;101225.69;5002866;28;20053;-69
2021/03/19 00:16:11;;;;;;;4.37;3.10;;;;;;;-3.64;100.00;101225.53;5007052;28;20088;-68
2021/03/19 00:18:38;;;;;;;7.10;3.37;;;;;;;-3.64;100.00;101228.09;5020575;28;20046;-68
2021/03/19 00:21:04;;;;;;;4.37;3.10;;;;;;;-3.68;100.00;101232.25;5005573;28;20479;-69
2021/03/19 00:23:31;;;;;;;4.30;3.03;;;;;;;-3.70;100.00;101234.78;4991357;28;20038;-68
2021/03/19 00:25:59;;;;;;;4.67;2.90;;;;;;;-3.72;100.00;101231.22;5003330;28;20072;-68
2021/03/19 00:28:25;;;;;;;4.73;3.43;;;;;;;-3.75;100.00;101225.94;5008334;28;20040;-68
2021/03/19 00:30:51;;;;;;;5.47;3.40;;;;;;;-3.73;100.00;101233.75;5023852;28;20072;-68
2021/03/19 00:33:17;;;;;;;5.87;3.57;;;;;;;-3.71;100.00;101227.81;5024229;28;20049;-68
2021/03/19 00:35:44;;;;;;;6.07;3.50;;;;;;;-3.71;100.00;101232.97;5020612;28;20038;-68
2021/03/19 00:38:11;;;;;;;4.93;3.53;;;;;;;-3.67;100.00;101234.03;5023764;28;20029;-69
2021/03/19 00:40:38;;;;;;;5.03;3.47;;;;;;;-3.71;100.00;101237.25;5004371;28;20108;-68
2021/03/19 00:43:06;;;;;;;5.27;3.47;;;;;;;-3.76;100.00;101229.31;5010067;28;20037;-69
2021/03/19 00:45:32;;;;;;;6.57;4.03;;;;;;;-3.81;100.00;101243.72;5028964;28;20041;-68
2021/03/19 00:47:59;;;;;;;5.27;3.17;;;;;;;-3.82;100.00;101244.53;5025041;28;20044;-68
2021/03/19 00:50:37;;;;;;;5.80;3.20;;;;;;;-3.77;100.00;101244.75;5025413;28;20041;-68
2021/03/19 00:53:03;;;;;;;4.87;3.17;;;;;;;-3.76;100.00;101249.09;4999843;28;20099;-68
2021/03/19 00:55:30;;;;;;;6.33;3.63;;;;;;;-3.79;100.00;101251.50;5005410;28;20038;-68
2021/03/19 00:57:56;;;;;;;4.73;3.60;;;;;;;-3.82;100.00;101246.22;5017759;28;20045;-68
2021/03/19 01:00:24;;;;;;;6.23;3.53;;;;;;;-3.87;100.00;101246.00;5022747;28;20055;-68
2021/03/19 01:02:51;;;;;;;6.50;4.07;;;;;;;-3.90;100.00;101242.41;5025787;28;20051;-68
2021/03/19 01:05:26;;;;;;;6.30;3.70;;;;;;;-3.95;100.00;101239.63;5024540;28;20063;-68
2021/03/19 01:07:53;;;;;;;5.43;3.13;;;;;;;-4.00;100.00;101238.50;4984214;28;20061;-68
2021/03/19 01:10:27;;;;;;;5.40;3.50;;;;;;;-4.05;100.00;101243.44;5010531;28;20135;-68
2021/03/19 01:12:54;;;;;;;6.13;3.83;;;;;;;-4.08;100.00;101242.41;4997644;28;20091;-68
2021/03/19 01:15:21;;;;;;;6.33;3.67;;;;;;;-4.09;100.00;101257.00;4983368;28;20129;-68
2021/03/19 01:17:48;;;;;;;6.13;3.70;;;;;;;-4.11;100.00;101244.88;5012372;28;20052;-68
2021/03/19 01:20:16;;;;;;;6.10;3.20;;;;;;;-4.15;100.00;101241.22;5009591;28;20045;-68
2021/03/19 01:22:42;;;;;;;6.57;3.57;;;;;;;-4.18;100.00;101247.97;5024367;28;20037;-68
2021/03/19 01:25:13;;;;;;;5.83;3.10;;;;;;;-4.20;100.00;101244.41;5021096;28;20407;-68
2021/03/19 01:27:39;;;;;;;6.87;4.50;;;;;;;-4.24;100.00;101248.53;5005323;28;20549;-68
2021/03/19 01:30:10;;;;;;;5.80;3.30;;;;;;;-4.26;100.00;101250.16;5006570;28;20194;-68
2021/03/19 01:32:37;;;;;;;9.27;4.77;;;;;;;-4.28;100.00;101251.78;5015056;28;20038;-68
2021/03/19 01:35:05;;;;;;;5.53;3.60;;;;;;;-4.30;100.00;101256.84;4987936;28;20045;-68
2021/03/19 01:37:31;;;;;;;7.33;3.77;;;;;;;-4.31;100.00;101257.66;5022932;28;20046;-68
2021/03/19 01:39:58;;;;;;;5.23;3.63;;;;;;;-4.28;100.00;101260.41;4994463;28;20506;-68
2021/03/19 01:42:24;;;;;;;6.67;3.70;;;;;;;-4.24;100.00;101264.00;5020321;28;20091;-68
2021/03/19 01:45:19;;;;;;;7.07;4.50;;;;;;;-4.16;100.00;101266.97;4993651;28;20396;-68
2021/03/19 01:48:22;;;;;;;8.02;4.00;;;;;;;-4.09;100.00;101264.75;5023411;28;20037;-68
2021/03/19 01:51:26;;;;;;;6.03;3.70;;;;;;;-3.97;100.00;101269.59;5026242;28;20073;-68
2021/03/19 01:54:31;;;;;;;8.55;5.07;;;;;;;-3.85;100.00;101259.88;5023934;28;20123;-68
2021/03/19 01:57:36;;;;;;;10.40;5.15;;;;;;;-3.71;100.00;101263.09;5017056;28;20037;-68
2021/03/19 02:00:40;;;;;;;7.73;4.33;;;;;;;-3.59;100.00;101260.19;5021703;28;20033;-68
2021/03/19 02:03:44;;;;;;;9.77;5.67;;;;;;;-3.49;100.00;101264.97;5007343;28;20049;-68
2021/03/19 02:06:48;;;;;;;12.40;6.27;;;;;;;-3.40;100.00;101267.97;5023345;28;20030;-68
2021/03/19 02:09:51;;;;;;;7.43;4.80;;;;;;;-3.30;100.00;101267.56;5022748;28;20033;-68
2021/03/19 02:12:55;;;;;;;9.77;5.20;;;;;;;-3.21;100.00;101260.22;5012665;28;20048;-68
2021/03/19 02:15:59;;;;;;;10.20;5.70;;;;;;;-3.19;100.00;101262.91;5024840;28;20112;-68
2021/03/19 02:19:02;;;;;;;9.70;5.63;;;;;;;-3.30;100.00;101270.16;5026776;28;20037;-68
2021/03/19 02:22:06;;;;;;;8.73;4.40;;;;;;;-3.46;100.00;101265.09;5031070;28;20048;-68
2021/03/19 02:25:10;;;;;;;6.83;4.90;;;;;;;-3.62;100.00;101263.50;5025131;28;20038;-68
2021/03/19 02:28:14;;;;;;;7.80;4.53;;;;;;;-3.76;100.00;101265.47;5027892;28;20080;-68
2021/03/19 02:31:14;;;;;;;9.80;5.13;;;;;;;-3.83;100.00;101265.09;5024362;28;20041;-68
2021/03/19 02:33:47;;;;;;;9.30;5.03;;;;;;;-3.90;100.00;101266.50;5025844;28;20038;-68
2021/03/19 02:36:18;;;;;;;11.70;5.43;;;;;;;-3.90;100.00;101270.78;5005183;28;20487;-68
2021/03/19 02:38:44;;;;;;;8.43;5.17;;;;;;;-3.97;100.00;101272.19;5010252;28;20724;-68
2021/03/19 02:41:10;;;;;;;8.03;4.90;;;;;;;-3.96;100.00;101274.84;5030750;28;20036;-68
2021/03/19 02:43:36;;;;;;;9.30;5.97;;;;;;;-3.94;100.00;101274.94;5025443;28;20048;-68
2021/03/19 02:46:03;;;;;;;10.03;5.33;;;;;;;-3.99;100.00;101279.88;5027013;28;20566;-68
2021/03/19 02:48:29;;;;;;;9.27;5.27;;;;;;;-3.98;100.00;101291.94;5018081;28;20088;-68
2021/03/19 02:50:57;;;;;;;10.10;5.87;;;;;;;-3.82;100.00;101292.69;5002198;28;20381;-68
2021/03/19 02:53:27;;;;;;;9.93;6.03;;;;;;;-3.70;100.00;101290.66;5003839;28;20049;-68
2021/03/19 02:55:59;;;;;;;9.30;6.10;;;;;;;-3.55;100.00;101295.66;5007811;28;20125;-68
2021/03/19 02:58:26;;;;;;;12.33;7.30;;;;;;;-3.44;100.00;101279.88;5022686;28;20558;-68
2021/03/19 03:00:53;;;;;;;12.30;7.10;;;;;;;-3.33;100.00;101292.38;5023438;28;20046;-68
2021/03/19 03:03:20;;;;;;;11.80;6.23;;;;;;;-3.26;100.00;101294.44;5006187;28;20092;-68
2021/03/19 03:05:48;;;;;;;11.90;7.43;;;;;;;-3.17;100.00;101285.41;5014501;28;20116;-68
2021/03/19 03:08:17;;;;;;;16.93;10.07;;;;;;;-3.09;100.00;101288.31;4987292;28;20052;-68
2021/03/19 03:10:45;;;;;;;11.10;6.90;;;;;;;-3.04;100.00;101294.56;5012017;28;20029;-68
2021/03/19 03:13:12;;;;;;;11.47;7.27;;;;;;;-3.01;100.00;101292.13;5004404;28;21466;-68
2021/03/19 03:15:40;;;;;;;9.73;6.67;;;;;;;-2.98;100.00;101293.97;4995698;28;20041;-68
2021/03/19 03:18:07;;;;;;;12.90;7.07;;;;;;;-2.96;100.00;101306.13;5028732;28;20540;-68
2021/03/19 03:20:37;;;;;;;13.70;7.63;;;;;;;-2.93;100.00;101300.22;5006853;28;20514;-68
2021/03/19 03:23:04;;;;;;;15.97;7.17;;;;;;;-2.93;100.00;101302.81;5013612;28;20045;-68
2021/03/19 03:28:19;;;;;;;9.70;6.10;;;;;;;-2.88;100.00;101302.19;5042472;28;20057;-70
2021/03/19 03:30:52;;;;;;;10.97;6.90;;;;;;;-2.83;100.00;101297.22;5046110;28;20477;-70
2021/03/19 03:33:19;;;;;;;11.07;6.17;;;;;;;-2.79;100.00;101311.16;5035096;28;20441;-70
2021/03/19 03:35:47;;;;;;;17.53;11.17;;;;;;;-2.71;100.00;101309.78;5040280;28;21513;-70
2021/03/19 03:38:20;;;;;;;15.23;8.27;;;;;;;-2.67;100.00;101312.59;5005833;28;20073;-70
2021/03/19 03:40:55;;;;;;;13.93;7.73;;;;;;;-2.64;100.00;101311.81;4992435;28;20043;-70
2021/03/19 03:43:25;;;;;;;20.37;10.53;;;;;;;-2.51;100.00;101321.91;5014052;28;20095;-70
2021/03/19 03:45:52;;;;;;;16.53;8.90;;;;;;;-2.48;100.00;101321.13;5008984;28;20053;-70
2021/03/19 03:48:21;;;;;;;13.37;8.03;;;;;;;-2.44;100.00;101315.25;5030749;28;20037;-70
2021/03/19 03:50:47;;;;;;;24.50;12.90;;;;;;;-2.39;100.00;101319.81;5032799;28;20725;-68
2021/03/19 03:53:14;;;;;;;23.63;12.13;;;;;;;-2.29;100.00;101315.91;5024118;28;20672;-70
2021/03/19 03:55:40;;;;;;;26.70;13.80;;;;;;;-2.23;100.00;101313.59;5045184;28;20032;-69
2021/03/19 03:58:08;;;;;;;20.60;11.20;;;;;;;-2.22;100.00;101305.00;5029237;28;20045;-70
2021/03/19 04:00:35;;;;;;;22.83;11.17;;;;;;;-2.21;100.00;101311.94;5028611;28;20053;-69
2021/03/19 04:03:03;;;;;;;18.97;10.63;;;;;;;-2.20;100.00;101312.81;5032164;28;20032;-70
2021/03/19 04:05:38;;;;;;;19.97;10.43;;;;;;;-2.19;100.00;101314.56;5029956;28;20697;-70
2021/03/19 04:08:05;;;;;;;20.23;11.13;;;;;;;-2.19;100.00;101319.75;5049364;28;20033;-70
2021/03/19 04:10:32;;;;;;;25.73;12.53;;;;;;;-2.19;100.00;101315.47;5030899;28;20089;-70
2021/03/19 04:12:58;;;;;;;27.90;14.90;;;;;;;-2.13;100.00;101320.91;5016029;28;20099;-69
2021/03/19 04:15:25;;;;;;;23.20;12.47;;;;;;;-2.10;100.00;101322.72;5049848;28;20056;-70
2021/03/19 04:17:56;;;;;;;26.50;13.27;;;;;;;-2.07;100.00;101328.94;5010150;28;20041;-69
2021/03/19 04:20:24;;;;;;;20.90;11.47;;;;;;;-2.05;100.00;101332.44;5021048;28;20045;-69
2021/03/19 04:22:50;;;;;;;19.13;10.63;;;;;;;-2.03;100.00;101328.22;5030290;28;20472;-70
2021/03/19 04:25:17;;;;;;;20.63;10.47;;;;;;;-2.01;100.00;101330.91;5001475;28;20040;-69
2021/03/19 04:27:53;;;;;;;22.20;12.03;;;;;;;-1.95;100.00;101331.13;5020029;28;20255;-69
2021/03/19 04:30:35;;;;;;;22.83;12.20;;;;;;;-1.92;100.00;101335.56;5033337;28;20045;-70
2021/03/19 04:33:02;;;;;;;22.63;12.30;;;;;;;-1.91;100.00;101335.63;5025525;28;20040;-70
2021/03/19 04:35:28;;;;;;;20.70;11.70;;;;;;;-1.91;100.00;101335.63;5027408;28;20052;-69
2021/03/19 04:37:59;;;;;;;20.47;11.30;;;;;;;-1.88;100.00;101340.91;5045993;28;20056;-69
2021/03/19 04:40:26;;;;;;;19.47;10.47;;;;;;;-1.86;100.00;101352.22;5013788;28;20727;-70
2021/03/19 04:42:54;;;;;;;20.30;11.30;;;;;;;-1.85;100.00;101346.25;5014051;28;20068;-69
2021/03/19 04:45:21;;;;;;;16.80;10.30;;;;;;;-1.83;100.00;101339.41;5047979;28;20036;-69
2021/03/19 04:47:47;;;;;;;21.80;11.90;;;;;;;-1.81;100.00;101340.34;5026837;28;20033;-69
2021/03/19 04:50:15;;;;;;;25.53;13.43;;;;;;;-1.78;100.00;101353.41;5025792;28;20107;-69
2021/03/19 04:52:42;;;;;;;23.23;11.97;;;;;;;-1.76;100.00;101351.78;5023909;28;20043;-70
2021/03/19 04:55:09;;;;;;;20.97;11.60;;;;;;;-1.75;100.00;101350.06;5048838;28;20064;-70
2021/03/19 04:57:36;;;;;;;27.23;13.60;;;;;;;-1.73;100.00;101354.47;5031615;28;20051;-70
2021/03/19 05:00:05;;;;;;;21.23;12.37;;;;;;;-1.72;100.00;101347.59;5011626;28;20502;-69
2021/03/19 05:02:43;;;;;;;25.00;14.03;;;;;;;-1.70;100.00;101354.59;5010674;28;20047;-69
2021/03/19 05:05:18;;;;;;;24.70;12.80;;;;;;;-1.70;100.00;101346.81;5036964;28;20041;-69
2021/03/19 05:07:44;;;;;;;25.75;13.43;;;;;;;-1.67;100.00;101353.84;5025823;28;20099;-71
2021/03/19 05:10:12;;;;;;;22.83;12.47;;;;;;;-1.66;100.00;101355.63;5043998;28;20048;-69
2021/03/19 05:12:39;;;;;;;23.87;12.57;;;;;;;-1.65;100.00;101354.78;5018414;28;20062;-70
2021/03/19 05:15:07;;;;;;;27.43;13.43;;;;;;;-1.62;100.00;101361.78;5045535;28;20441;-69
2021/03/19 05:17:34;;;;;;;25.93;12.77;;;;;;;-1.61;100.00;101359.25;5011286;28;20099;-70
2021/03/19 05:20:04;;;;;;;30.47;14.77;;;;;;;-1.56;100.00;101359.47;5045088;28;20079;-69
2021/03/19 05:22:30;;;;;;;28.07;14.57;;;;;;;-1.55;100.00;101364.69;5044168;28;20684;-69
2021/03/19 05:24:57;;;;;;;28.97;14.97;;;;;;;-1.52;100.00;101356.16;5047892;28;20186;-70
2021/03/19 05:27:25;;;;;;;30.40;14.77;;;;;;;-1.51;100.00;101365.72;5022987;28;20103;-70
2021/03/19 05:29:55;;;;;;;25.47;14.27;;;;;;;-1.49;100.00;101366.66;5032605;28;20132;-70
2021/03/19 05:32:22;;;;;;;25.33;13.53;;;;;;;-1.48;100.00;101358.94;5032127;28;20044;-71
2021/03/19 05:34:49;;;;;;;31.40;17.73;;;;;;;-1.46;100.00;101369.34;5041051;28;20527;-69
2021/03/19 05:37:15;;;;;;;32.57;14.93;;;;;;;-1.44;100.00;101375.47;5029565;28;20041;-70
2021/03/19 05:39:41;;;;;;;28.03;14.33;;;;;;;-1.40;100.00;101377.38;5024417;28;20506;-70
2021/03/19 05:42:34;;;;;;;25.87;14.67;;;;;;;-1.37;100.00;101384.38;5041371;28;20041;-70
2021/03/19 05:45:11;;;;;;;25.15;13.75;;;;;;;-1.36;100.00;101386.16;5041978;28;20568;-69
2021/03/19 05:47:37;;;;;;;25.77;14.57;;;;;;;-1.33;100.00;101384.56;5020825;28;20047;-69
2021/03/19 05:50:06;;;;;;;25.93;14.27;;;;;;;-1.30;100.00;101387.28;5013940;28;20068;-70
2021/03/19 05:52:35;;;;;;;23.27;12.43;;;;;;;-1.26;100.00;101389.19;5012863;28;20033;-70
2021/03/19 05:55:16;;;;;;;24.73;12.77;;;;;;;-1.23;100.00;101391.88;5048668;28;20077;-70
2021/03/19 05:57:42;;;;;;;36.27;17.00;;;;;;;-1.16;100.00;101395.59;5039999;28;20032;-70
2021/03/19 06:00:21;;;;;;;28.23;15.00;;;;;;;-1.13;100.00;101390.53;5044332;28;20045;-70
2021/03/19 06:02:48;;;;;;;26.73;15.47;;;;;;;-1.08;100.00;101378.63;5022894;28;20540;-70
2021/03/19 06:05:23;;;;;;;22.70;12.90;;;;;;;-1.05;100.00;101389.09;5041292;28;20033;-70
2021/03/19 06:07:53;;;;;;;23.03;12.70;;;;;;;-1.03;100.00;101394.34;5022417;28;20541;-69
2021/03/19 06:10:32;;;;;;;30.70;16.50;;;;;;;-1.03;100.00;101394.34;5043070;28;20083;-69
2021/03/19 06:13:04;;;;;;;110.90;55.53;;;;;;;-0.98;100.00;101400.59;5047001;28;20037;-69
2021/03/19 06:15:43;;;;;;;38.57;20.83;;;;;;;-0.94;100.00;101407.66;5050685;28;20032;-69
2021/03/19 06:18:22;;;;;;;26.90;15.60;;;;;;;-0.88;100.00;101406.19;5024666;28;20137;-70
2021/03/19 06:21:00;;;;;;;23.60;13.07;;;;;;;-0.79;100.00;101415.13;5039251;28;20045;-70
2021/03/19 06:23:26;;;;;;;26.43;14.97;;;;;;;-0.73;100.00;101407.59;5054673;28;20033;-71
2021/03/19 06:26:15;;;;;;;23.60;13.60;;;;;;;-0.68;100.00;101416.41;5044624;28;20094;-70
2021/03/19 06:28:41;;;;;;;22.93;14.07;;;;;;;-0.67;100.00;101434.66;5012000;28;20056;-70
2021/03/19 06:31:30;;;;;;;23.97;13.80;;;;;;;-0.57;100.00;101431.56;5047054;28;20037;-71
2021/03/19 06:34:15;;;;;;;20.90;12.97;;;;;;;-0.46;100.00;101439.75;5026792;28;20044;-69
2021/03/19 06:37:01;;;;;;;22.23;12.80;;;;;;;-0.29;100.00;101442.94;5011198;28;20401;-70
2021/03/19 06:39:52;;;;;;;24.10;13.13;;;;;;;-0.05;100.00;101448.13;5038809;28;20033;-71
2021/03/19 06:42:18;;;;;;;22.43;12.87;;;;;;;0.17;100.00;101447.13;5034397;28;20041;-71
2021/03/19 06:45:03;;;;;;;22.90;14.10;;;;;;;0.34;100.00;101438.22;5026972;28;20056;-71
2021/03/19 06:47:42;;;;;;;23.67;13.23;;;;;;;0.43;100.00;101445.44;5044625;28;20156;-71
2021/03/19 06:50:34;;;;;;;20.77;12.43;;;;;;;0.57;100.00;101450.25;5029699;28;20033;-70
2021/03/19 06:53:18;;;;;;;25.90;13.27;;;;;;;0.73;100.00;101458.53;5023219;28;20756;-71
2021/03/19 06:55:54;;;;;;;22.70;12.53;;;;;;;0.67;100.00;101459.22;5030995;28;20045;-70
2021/03/19 06:58:37;;;;;;;20.20;12.20;;;;;;;0.66;100.00;101466.97;5047181;28;20044;-71
2021/03/19 07:01:04;;;;;;;19.73;11.03;;;;;;;0.57;100.00;101467.56;5027209;28;20044;-70
2021/03/19 07:03:51;;;;;;;20.50;12.33;;;;;;;0.46;100.00;101469.81;5036602;28;20064;-70
2021/03/19 07:06:36;;;;;;;19.77;11.17;;;;;;;0.34;100.00;101465.91;5027144;28;20041;-71
2021/03/19 07:09:40;;;;;;;21.70;12.40;;;;;;;0.28;100.00;101477.88;5053892;28;20065;-70
2021/03/19 07:12:14;;;;;;;18.47;11.13;;;;;;;0.26;100.00;101469.16;5030469;28;20041;-72
2021/03/19 07:14:45;;;;;;;19.40;11.00;;;;;;;0.34;100.00;101476.31;5029590;28;20037;-71
2021/03/19 07:17:48;;;;;;;20.63;11.63;;;;;;;0.35;100.00;101471.19;5030736;28;20052;-70
2021/03/19 07:20:31;;;;;;;22.20;10.87;;;;;;;0.36;100.00;101462.56;5043262;28;20064;-71
2021/03/19 07:23:20;;;;;;;17.83;10.03;;;;;;;0.34;100.00;101464.22;5053052;28;20110;-71
2021/03/19 07:25:56;;;;;;;18.83;11.57;;;;;;;0.24;100.00;101468.19;5024838;28;20068;-71
2021/03/19 07:28:47;;;;;;;17.93;10.03;;;;;;;0.27;100.00;101472.63;5021898;28;20036;-71
2021/03/19 07:31:22;;;;;;;16.27;10.57;;;;;;;0.33;100.00;101479.72;5040178;28;20053;-70
2021/03/19 07:34:11;;;;;;;21.07;11.77;;;;;;;0.40;100.00;101472.19;5040462;28;20037;-70
2021/03/19 07:36:51;;;;;;;19.60;12.27;;;;;;;0.44;100.00;101481.00;5042967;28;20045;-71
2021/03/19 07:39:27;;;;;;;20.00;10.50;;;;;;;0.62;100.00;101483.34;5041727;28;20084;-71
2021/03/19 07:42:21;;;;;;;19.50;11.37;;;;;;;0.86;100.00;101481.53;5020926;28;20354;-72
2021/03/19 07:45:09;;;;;;;19.15;11.18;;;;;;;1.00;100.00;101479.34;5038335;28;20040;-70
2021/03/19 07:47:45;;;;;;;17.60;11.57;;;;;;;1.09;100.00;101480.53;5041102;28;20096;-70
2021/03/19 07:50:31;;;;;;;17.13;10.07;;;;;;;1.15;100.00;101485.03;5033090;28;20040;-70
2021/03/19 07:53:15;;;;;;;14.13;9.17;;;;;;;0.95;100.00;101486.13;5023885;28;20095;-71
2021/03/19 07:56:27;;;;;;;14.13;7.97;;;;;;;0.73;100.00;101487.16;5002899;28;20107;-71
2021/03/19 07:59:01;;;;;;;16.07;8.70;;;;;;;0.62;100.00;101502.41;5020517;28;20052;-71
2021/03/19 08:01:36;;;;;;;13.27;8.33;;;;;;;0.57;100.00;101496.16;5017364;28;20138;-71
2021/03/19 08:04:10;;;;;;;14.17;8.83;;;;;;;0.60;100.00;101503.22;5019106;28;20041;-70
2021/03/19 08:06:40;;;;;;;14.93;8.68;;;;;;;0.67;100.00;101505.16;5017829;28;20574;-70
2021/03/19 08:09:12;;;;;;;10.93;6.97;;;;;;;0.84;100.00;101515.31;5019543;28;20036;-70
2021/03/19 08:11:54;;;;;;;12.73;7.47;;;;;;;1.29;100.00;101525.41;5029648;28;20037;-71
2021/03/19 08:14:48;;;;;;;9.60;6.00;;;;;;;1.37;100.00;101520.44;5024928;28;20064;-71
2021/03/19 08:17:51;;;;;;;8.40;5.03;;;;;;;1.79;100.00;101533.84;5025292;28;20064;-71
2021/03/19 08:20:38;;;;;;;8.83;4.47;;;;;;;1.94;99.09;101530.81;5047631;28;20401;-71
2021/03/19 08:23:26;;;;;;;8.00;5.03;;;;;;;2.03;99.23;101540.59;5010135;28;20060;-70
2021/03/19 08:25:54;;;;;;;6.23;3.53;;;;;;;2.12;99.03;101535.66;5023448;28;20072;-71
2021/03/19 08:28:39;;;;;;;7.80;4.37;;;;;;;2.07;98.66;101539.84;5011909;28;20029;-71
2021/03/19 08:31:16;;;;;;;9.70;3.80;;;;;;;1.91;98.84;101538.50;5030283;28;20079;-71
2021/03/19 08:33:57;;;;;;;7.10;4.17;;;;;;;1.58;99.93;101548.81;5008328;28;20049;-70
2021/03/19 08:36:48;;;;;;;6.27;3.73;;;;;;;1.61;100.00;101546.31;5030238;28;20049;-70
2021/03/19 08:39:26;;;;;;;5.47;3.30;;;;;;;1.74;100.00;101558.88;5037501;28;20045;-71
2021/03/19 08:41:57;;;;;;;6.27;3.67;;;;;;;2.10;100.00;101548.63;5009518;28;20104;-70
2021/03/19 08:44:27;;;;;;;5.23;2.93;;;;;;;2.59;100.00;101552.56;5013735;28;20049;-72
2021/03/19 08:47:09;;;;;;;5.73;3.17;;;;;;;2.61;93.64;101542.19;5013943;28;20053;-72
2021/03/19 08:49:45;;;;;;;;;;;;;;;2.83;95.48;101542.75;5017880;28;20051;-71
2021/03/19 08:52:29;;;;;;;3.43;2.40;;;;;;;3.53;95.58;101540.94;5025885;28;20401;-71
2021/03/19 08:55:15;;;;;;;3.40;2.63;;;;;;;4.07;90.59;101548.19;5016918;28;20056;-72
2021/03/19 08:57:47;;;;;;;2.60;1.73;;;;;;;4.49;90.75;101553.34;5028130;28;20064;-71
2021/03/19 09:00:20;;;;;;;2.17;1.40;;;;;;;4.69;85.84;101551.09;5023138;28;20045;-71
2021/03/19 09:02:58;;;;;;;2.83;1.45;;;;;;;4.47;84.13;101565.53;5040733;28;20043;-71
2021/03/19 09:05:29;;;;;;;3.43;2.17;;;;;;;4.44;86.42;101559.34;5042366;28;20048;-71
2021/03/19 09:08:27;;;;;;;2.30;1.40;;;;;;;4.63;84.02;101566.69;5037779;28;20079;-71
2021/03/19 09:10:53;;;;;;;2.47;1.10;;;;;;;4.56;82.05;101570.06;5007972;28;20044;-71
2021/03/19 09:13:21;;;;;;;1.93;1.27;;;;;;;4.47;84.30;101569.88;5038848;28;20040;-72
2021/03/19 09:15:56;;;;;;;1.30;1.10;;;;;;;4.08;82.08;101583.03;5026819;28;21792;-71
2021/03/19 09:18:45;;;;;;;2.10;1.23;;;;;;;3.41;84.31;101590.28;5021978;28;20036;-71
2021/03/19 09:21:31;;;;;;;3.10;1.20;;;;;;;2.65;86.69;101584.03;5014601;28;20041;-70
2021/03/19 09:24:00;;;;;;;1.73;1.27;;;;;;;2.49;91.60;101571.41;5022278;28;20127;-70
2021/03/19 09:26:46;;;;;;;1.90;1.47;;;;;;;3.58;93.92;101581.09;5033175;28;20049;-70
2021/03/19 09:29:12;;;;;;;1.87;1.40;;;;;;;4.87;91.00;101583.69;5015654;28;20048;-71
2021/03/19 09:31:42;;;;;;;2.53;1.20;;;;;;;5.65;87.01;101578.84;5045763;28;21892;-71
2021/03/19 09:34:15;;;;;;;2.10;1.53;;;;;;;4.91;79.87;101583.78;5025622;28;20045;-71
2021/03/19 09:36:58;;;;;;;10.30;2.30;;;;;;;4.47;79.00;101586.47;5023267;28;20265;-71
2021/03/19 09:39:47;;;;;;;2.50;1.80;;;;;;;3.50;81.97;101598.31;5008223;28;20041;-71
2021/03/19 09:42:33;;;;;;;2.80;1.40;;;;;;;2.96;86.80;101603.97;5019203;28;20533;-70
2021/03/19 09:44:59;;;;;;;1.70;1.10;;;;;;;2.70;88.22;101607.66;5028465;28;20048;-70
2021/03/19 09:47:41;;;;;;;3.07;1.83;;;;;;;2.10;90.15;101619.03;5030271;28;20049;-70
2021/03/19 09:50:25;;;;;;;1.87;1.20;;;;;;;1.78;93.27;101614.56;5014712;28;20141;-70
2021/03/19 09:52:56;;;;;;;2.60;1.27;;;;;;;2.77;90.38;101604.31;5018528;28;20057;-71
2021/03/19 09:55:26;;;;;;;3.00;1.57;;;;;;;4.50;86.57;101601.34;5016826;28;20107;-71
2021/03/19 09:57:52;;;;;;;3.23;1.60;;;;;;;5.73;78.85;101596.44;5017295;28;20033;-71
2021/03/19 10:00:24;;;;;;;5.03;2.00;;;;;;;7.02;74.03;101591.84;5015327;28;20688;-71
2021/03/19 10:02:51;;;;;;;3.00;1.70;;;;;;;6.88;68.86;101603.94;5031215;28;20112;-70
2021/03/19 10:05:17;;;;;;;3.63;1.77;;;;;;;6.58;71.03;101597.53;5055709;28;20042;-71
2021/03/19 10:07:50;;;;;;;3.03;1.90;;;;;;;8.16;74.18;101589.97;5032996;28;20240;-71
2021/03/19 10:10:38;;;;;;;4.37;2.30;;;;;;;8.72;67.97;101589.28;5022501;28;20052;-70
2021/03/19 10:13:16;;;;;;;3.83;1.45;;;;;;;9.26;62.15;101589.34;5021541;28;20692;-70
2021/03/19 10:15:44;;;;;;;2.72;1.48;;;;;;;11.06;64.95;101593.94;5010844;28;20506;-71
2021/03/19 10:18:33;;;;;;;3.00;1.52;;;;;;;13.04;58.29;101590.81;5045260;28;20119;-71
2021/03/19 10:21:05;;;;;;;3.55;2.00;;;;;;;13.66;53.61;101590.66;5056368;28;20041;-71
2021/03/19 10:23:34;;;;;;;5.10;1.70;;;;;;;12.07;50.17;101604.47;5045741;28;20061;-72
2021/03/19 10:26:44;;;;;;;2.40;1.40;;;;;;;10.77;52.61;101609.16;5033909;28;20048;-70
2021/03/19 10:29:18;;;;;;;4.32;1.70;;;;;;;7.76;56.08;101615.19;5008590;28;20049;-70
2021/03/19 10:31:52;;;;;;;5.75;2.22;;;;;;;7.83;61.75;101613.47;5057409;28;20036;-72
2021/03/19 10:34:27;;;;;;;2.75;1.77;;;;;;;6.41;59.74;101612.22;5020183;28;20048;-72
2021/03/19 10:37:12;;;;;;;4.47;1.70;;;;;;;6.87;63.65;101607.44;5047622;28;20052;-72
2021/03/19 10:39:49;;;;;;;4.10;1.83;;;;;;;9.48;60.47;101591.06;5031375;28;20043;-72
2021/03/19 10:42:24;;;;;;;3.13;1.65;;;;;;;9.36;55.03;101606.91;5037935;28;20038;-72
2021/03/19 10:45:12;;;;;;;3.95;2.17;;;;;;;8.70;57.34;101600.72;5029613;28;20628;-71
2021/03/19 10:47:52;;;;;;;2.95;1.92;;;;;;;9.28;51.02;101595.50;5019334;28;20095;-71
2021/03/19 10:50:31;;;;;;;4.80;2.33;;;;;;;9.34;53.14;101595.50;5012924;28;20044;-72
2021/03/19 10:53:13;;;;;;;5.25;2.05;;;;;;;8.25;53.96;101599.66;5022753;28;20076;-71
2021/03/19 10:55:39;;;;;;;3.47;1.70;;;;;;;7.97;57.40;101590.75;5043426;28;20041;-72
2021/03/19 10:58:22;;;;;;;4.40;2.08;;;;;;;7.55;59.65;101612.41;5029517;28;20041;-72
2021/03/19 11:00:50;;;;;;;4.28;2.00;;;;;;;8.60;57.17;101606.84;5046585;28;20123;-72
2021/03/19 11:03:45;;;;;;;2.67;2.05;;;;;;;7.85;55.09;101603.84;5033579;28;20091;-72
2021/03/19 11:06:28;;;;;;;2.45;1.55;;;;;;;6.59;58.32;101619.41;5042037;28;20181;-72
2021/03/19 11:09:11;;;;;;;5.32;1.85;;;;;;;5.89;58.90;101608.91;5015921;28;20742;-71
2021/03/19 11:11:38;;;;;;;3.97;1.77;;;;;;;6.40;61.46;101608.72;5034675;28;20045;-71
2021/03/19 11:14:07;;;;;;;3.73;2.03;;;;;;;6.12;58.47;101606.59;5026310;28;20057;-71
2021/03/19 11:16:37;;;;;;;3.40;1.80;;;;;;;5.12;59.24;101632.13;5047904;28;20045;-71
2021/03/19 11:19:08;;;;;;;3.43;1.70;;;;;;;4.21;59.68;101634.78;5027779;28;20561;-71
2021/03/19 11:21:35;;;;;;;3.93;2.10;;;;;;;3.87;65.80;101631.44;5047341;28;20036;-71
2021/03/19 11:24:04;;;;;;;5.00;1.37;;;;;;;3.30;67.28;101641.38;5011897;28;20030;-71
2021/03/19 11:26:33;;;;;;;3.83;1.80;;;;;;;3.12;67.64;101639.19;5046168;28;20071;-71
2021/03/19 11:29:08;;;;;;;2.60;1.50;;;;;;;3.16;67.43;101654.09;5030309;28;20083;-71
2021/03/19 11:32:27;;;;;;;4.93;2.23;;;;;;;3.43;67.17;101647.78;5030455;28;20099;-72
2021/03/19 11:35:08;;;;;;;3.57;1.57;;;;;;;4.13;64.29;101647.69;5018618;28;20056;-71
2021/03/19 11:37:37;;;;;;;4.97;2.07;;;;;;;5.61;65.46;101637.31;5012030;28;20755;-70
2021/03/19 11:40:27;;;;;;;1.87;1.40;;;;;;;5.45;58.02;101640.53;5025840;28;20045;-70
2021/03/19 11:42:55;;;;;;;2.80;1.40;;;;;;;5.45;61.34;101643.16;5050796;28;20083;-71
2021/03/19 11:45:24;;;;;;;2.73;1.53;;;;;;;5.05;61.50;101644.25;5017004;28;20056;-70
2021/03/19 11:47:56;;;;;;;4.23;1.60;;;;;;;4.39;63.10;101650.84;5022377;28;20112;-70
2021/03/19 11:50:36;;;;;;;4.83;1.50;;;;;;;4.35;64.72;101653.34;5022527;28;20562;-70
2021/03/19 11:53:09;;;;;;;3.30;1.40;;;;;;;4.47;65.53;101654.50;5027588;28;20041;-70
2021/03/19 11:55:44;;;;;;;2.97;1.80;;;;;;;4.31;64.42;101656.75;5009910;28;20049;-70
2021/03/19 11:58:12;;;;;;;2.67;1.47;;;;;;;4.67;67.19;101647.03;5014767;28;20038;-70